Time;durP1;ratioP1;P1;durP2;ratioP2;P2;SDS_P1;SDS_P2;PMS_P1;PMS_P2;Temp;Humidity;BMP_temperature;BMP_pressure;BME280_temperature;BME280_humidity;BME280_pressure;Samples;Min_cycle;Max_cycle;Signal;HPM_P1;HPM_P2
2022/03/17 00:17:48;;;;;;;0.00;0.00;;;;;;;7.37;74.65;99729.38;6185457;22;20666;-80
2022/03/17 00:20:15;;;;;;;0.00;0.00;;;;;;;7.35;74.89;99732.28;6247987;22;20018;-79
2022/03/17 00:26:34;;;;;;;0.00;0.00;;;;;;;7.29;75.74;99730.59;6146672;23;20052;-82
2022/03/17 01:14:54;;;;;;;0.20;0.20;;;;;;;6.67;79.73;99766.56;6294736;22;21092;-81
2022/03/17 03:15:13;;;;;;;0.00;0.00;;;;;;;6.59;82.24;99840.50;6320401;22;20041;-79
2022/03/17 03:17:38;;;;;;;0.00;0.00;;;;;;;6.51;82.07;99833.69;6280899;22;20046;-79
2022/03/17 03:20:05;;;;;;;1.30;1.20;;;;;;;6.45;82.36;99842.59;6255356;22;20070;-79
2022/03/17 03:23:13;;;;;;;1.17;1.13;;;;;;;6.37;82.75;99839.22;6283851;22;20018;-81
2022/03/17 03:28:15;;;;;;;0.10;0.10;;;;;;;6.22;82.26;99823.69;6307737;22;20054;-81
2022/03/17 03:30:44;;;;;;;0.10;0.10;;;;;;;6.34;83.06;99834.34;6281193;22;20055;-79
2022/03/17 03:33:13;;;;;;;0.00;0.00;;;;;;;6.39;83.33;99846.97;6280568;22;20003;-79
2022/03/17 03:38:53;;;;;;;0.00;0.00;;;;;;;6.45;83.04;99853.22;6292483;22;20010;-80
2022/03/17 03:41:46;;;;;;;0.00;0.00;;;;;;;6.48;82.11;99848.25;6287357;22;20432;-79
2022/03/17 03:50:57;;;;;;;0.08;0.08;;;;;;;6.43;82.97;99874.69;6297574;22;20030;-80
2022/03/17 04:11:24;;;;;;;0.00;0.00;;;;;;;6.14;83.84;99914.34;6314056;22;20034;-81
2022/03/17 05:27:50;;;;;;;0.05;0.05;;;;;;;6.82;81.87;100008.03;6276602;22;20054;-79
2022/03/17 05:30:18;;;;;;;0.00;0.00;;;;;;;6.72;81.54;100010.44;6248365;22;20003;-79
2022/03/17 05:32:44;;;;;;;0.40;0.40;;;;;;;6.68;81.24;100012.72;6247015;22;19996;-79
2022/03/17 05:35:11;;;;;;;0.00;0.00;;;;;;;6.62;80.72;100010.97;6272693;22;20003;-79
2022/03/17 05:37:37;;;;;;;0.08;0.08;;;;;;;6.47;81.20;100006.06;6247543;22;20000;-79
2022/03/17 05:40:05;;;;;;;0.28;0.28;;;;;;;6.39;81.20;100015.13;6247479;22;20004;-79
2022/03/17 05:42:31;;;;;;;0.20;0.20;;;;;;;6.34;81.63;100015.00;6246743;22;20007;-78
2022/03/17 05:44:57;;;;;;;0.22;0.22;;;;;;;6.24;82.20;100018.19;6247199;22;20080;-78
2022/03/17 05:47:22;;;;;;;1.65;1.55;;;;;;;6.20;82.35;100019.69;6246995;22;20000;-79
2022/03/17 05:49:48;;;;;;;0.03;0.03;;;;;;;6.09;83.00;100031.88;6275090;22;20007;-77
2022/03/17 05:52:15;;;;;;;0.00;0.00;;;;;;;6.00;82.57;100027.06;6246911;22;20011;-78
2022/03/17 05:54:40;;;;;;;0.40;0.40;;;;;;;5.98;82.40;100039.72;6247226;22;20010;-78
2022/03/17 05:57:06;;;;;;;1.23;1.23;;;;;;;5.95;82.33;100042.81;6246893;22;20008;-78
2022/03/17 05:59:32;;;;;;;0.20;0.20;;;;;;;5.96;82.69;100045.25;6246990;22;20004;-78
2022/03/17 06:01:58;;;;;;;0.45;0.45;;;;;;;6.00;82.34;100050.97;6247579;22;20437;-78
2022/03/17 06:04:23;;;;;;;1.73;1.63;;;;;;;5.96;82.83;100060.34;6274598;22;20000;-79
2022/03/17 06:06:50;;;;;;;0.00;0.00;;;;;;;6.03;83.08;100051.34;6247701;22;20040;-79
2022/03/17 06:09:15;;;;;;;0.10;0.10;;;;;;;6.06;82.76;100060.72;6246992;22;20028;-78
2022/03/17 06:11:41;;;;;;;0.00;0.00;;;;;;;6.15;82.18;100066.53;6246977;22;20326;-79
2022/03/17 06:14:07;;;;;;;0.00;0.00;;;;;;;6.15;82.46;100072.66;6247291;22;20015;-80
2022/03/17 06:16:33;;;;;;;11.80;1.65;;;;;;;6.21;82.38;100078.91;6273820;22;19999;-80
2022/03/17 06:18:58;;;;;;;0.00;0.00;;;;;;;6.23;82.06;100076.88;6247050;22;20015;-78
2022/03/17 06:21:24;;;;;;;1.23;1.20;;;;;;;6.27;81.59;100080.69;6246481;22;20441;-79
2022/03/17 06:23:50;;;;;;;0.63;0.63;;;;;;;6.22;81.03;100086.66;6246888;22;20007;-80
2022/03/17 06:26:15;;;;;;;0.00;0.00;;;;;;;6.21;81.31;100095.69;6221378;23;20014;-79
2022/03/17 06:28:41;;;;;;;0.28;0.28;;;;;;;6.19;81.42;100092.44;6222862;23;20352;-79
2022/03/17 06:31:06;;;;;;;0.32;0.32;;;;;;;6.19;80.80;100100.41;6222356;23;20018;-80
2022/03/17 06:33:32;;;;;;;0.57;0.57;;;;;;;6.20;80.80;100104.69;6222469;23;20014;-80
2022/03/17 06:35:57;;;;;;;0.00;0.00;;;;;;;6.19;80.56;100111.03;6222957;23;20014;-79
2022/03/17 06:38:22;;;;;;;0.17;0.17;;;;;;;6.16;80.21;100111.44;6223322;23;20009;-79
2022/03/17 06:40:48;;;;;;;0.88;0.88;;;;;;;6.16;80.22;100111.44;6223576;23;20017;-78
2022/03/17 06:43:17;;;;;;;0.10;0.10;;;;;;;6.07;80.73;100115.44;6223744;23;20078;-79
2022/03/17 06:45:43;;;;;;;;;;;;;;;6.04;80.63;100113.22;6223338;23;20027;-80
2022/03/17 06:48:08;;;;;;;0.00;0.00;;;;;;;6.01;80.33;100116.31;6248194;22;19940;-80
2022/03/17 06:50:34;;;;;;;0.20;0.20;;;;;;;5.92;79.83;100116.56;6222797;23;20093;-78
2022/03/17 06:53:00;;;;;;;2.83;1.63;;;;;;;5.93;80.18;100122.69;6222793;23;20006;-78
2022/03/17 06:55:25;;;;;;;0.40;0.40;;;;;;;5.92;79.59;100124.53;6222946;23;20516;-80
2022/03/17 06:57:51;;;;;;;0.30;0.30;;;;;;;5.91;78.79;100125.56;6222917;23;20006;-79
2022/03/17 07:00:18;;;;;;;1.50;1.50;;;;;;;5.93;79.06;100131.47;6223287;23;20009;-79
2022/03/17 07:02:44;;;;;;;0.00;0.00;;;;;;;5.95;78.94;100138.41;6222556;23;20068;-79
2022/03/17 07:05:10;;;;;;;1.05;1.02;;;;;;;5.90;79.05;100137.22;6222386;23;20071;-78
2022/03/17 07:07:36;;;;;;;1.13;1.13;;;;;;;5.88;78.13;100141.94;6222660;23;20006;-79
2022/03/17 07:10:03;;;;;;;0.20;0.20;;;;;;;5.87;77.47;100142.97;6222720;23;20010;-79
2022/03/17 07:12:28;;;;;;;0.90;0.90;;;;;;;5.88;77.40;100143.78;6222909;23;20017;-78
2022/03/17 07:14:54;;;;;;;0.35;0.35;;;;;;;5.82;76.77;100155.25;6222981;23;20006;-79
2022/03/17 07:17:21;;;;;;;0.82;0.77;;;;;;;5.81;77.43;100162.41;6222452;23;20446;-78
2022/03/17 07:22:24;;;;;;;0.40;0.40;;;;;;;5.81;76.53;100170.38;6119839;23;20006;-79
2022/03/17 07:24:49;;;;;;;0.10;0.10;;;;;;;5.81;76.81;100174.88;6222713;23;20010;-79
2022/03/17 07:27:14;;;;;;;1.15;0.60;;;;;;;5.77;76.41;100169.16;6222232;23;20045;-79
2022/03/17 07:29:40;;;;;;;1.00;1.00;;;;;;;5.74;75.43;100178.38;6247292;22;20006;-79
2022/03/17 07:32:06;;;;;;;2.47;2.38;;;;;;;5.73;75.42;100182.06;6222663;23;20006;-79
2022/03/17 07:34:31;;;;;;;0.93;0.93;;;;;;;5.80;77.09;100179.38;6222324;23;20014;-79
2022/03/17 07:36:56;;;;;;;0.10;0.10;;;;;;;5.85;77.43;100173.41;6222371;23;20010;-79
2022/03/17 07:39:22;;;;;;;1.00;1.00;;;;;;;5.89;77.60;100177.25;6222286;23;20033;-79
2022/03/17 07:41:48;;;;;;;2.17;2.00;;;;;;;5.93;76.75;100184.56;6222557;23;20021;-79
2022/03/17 07:44:14;;;;;;;0.70;0.70;;;;;;;5.98;76.65;100175.13;6222428;23;20439;-79
2022/03/17 07:46:40;;;;;;;3.65;3.40;;;;;;;5.95;76.09;100180.91;6222249;23;20010;-79
2022/03/17 07:49:05;;;;;;;0.73;0.73;;;;;;;5.97;77.29;100170.84;6222512;23;20024;-79
2022/03/17 07:51:31;;;;;;;0.70;0.70;;;;;;;6.04;77.58;100179.59;6221923;23;20530;-79
2022/03/17 07:53:56;;;;;;;0.10;0.10;;;;;;;6.10;77.26;100184.03;6222573;23;20431;-79
2022/03/17 07:56:22;;;;;;;0.63;0.63;;;;;;;6.14;76.37;100179.94;6221925;23;20052;-79
2022/03/17 07:58:48;;;;;;;1.00;1.00;;;;;;;6.20;76.10;100181.72;6222113;23;20036;-79
2022/03/17 08:01:15;;;;;;;3.03;2.78;;;;;;;6.19;75.15;100181.91;6222491;23;20001;-79
2022/03/17 08:03:40;;;;;;;1.65;1.55;;;;;;;6.28;75.89;100182.47;6221686;23;20466;-79
2022/03/17 08:06:06;;;;;;;0.35;0.35;;;;;;;6.32;75.49;100181.00;6120186;23;20006;-79
2022/03/17 08:08:34;;;;;;;2.58;0.68;;;;;;;6.32;74.48;100181.00;6221884;23;20010;-79
2022/03/17 08:11:00;;;;;;;0.68;0.68;;;;;;;6.33;74.78;100190.59;6222505;23;20033;-79
2022/03/17 08:13:26;;;;;;;2.63;2.42;;;;;;;6.29;74.24;100202.69;6221901;23;20410;-79
2022/03/17 08:15:52;;;;;;;1.75;1.65;;;;;;;6.36;74.72;100195.44;6120246;23;20055;-79
2022/03/17 08:18:18;;;;;;;1.95;1.85;;;;;;;6.38;75.14;100194.22;6222173;23;20462;-79
2022/03/17 08:20:43;;;;;;;0.90;0.90;;;;;;;6.40;74.49;100197.44;6222015;23;20009;-79
2022/03/17 08:23:09;;;;;;;0.40;0.40;;;;;;;6.32;74.02;100196.94;6221996;23;20006;-79
2022/03/17 08:25:35;;;;;;;0.57;0.32;;;;;;;6.36;75.15;100208.72;6242015;23;20234;-79
2022/03/17 08:28:04;;;;;;;0.70;0.60;;;;;;;6.36;75.52;100206.91;6242828;23;20016;-79
2022/03/17 08:30:32;;;;;;;0.55;0.55;;;;;;;6.34;75.70;100208.97;6217135;23;20008;-79
2022/03/17 08:32:58;;;;;;;0.00;0.00;;;;;;;6.44;75.22;100213.78;6242700;23;20016;-79
2022/03/17 08:35:24;;;;;;;6.13;1.45;;;;;;;6.44;74.99;100215.63;6217492;23;20082;-79
2022/03/17 08:37:50;;;;;;;0.08;0.08;;;;;;;6.46;73.91;100225.00;6217738;23;20011;-79
2022/03/17 08:40:16;;;;;;;0.57;0.55;;;;;;;6.33;72.85;100235.75;6217567;23;20455;-79
2022/03/17 08:42:42;;;;;;;1.05;1.05;;;;;;;6.27;71.93;100239.28;6216998;23;20000;-79
2022/03/17 08:50:42;;;;;;;0.75;0.75;;;;;;;6.19;71.71;100241.19;6243480;23;20073;-79
2022/03/17 08:53:08;;;;;;;0.85;0.85;;;;;;;6.18;72.16;100250.19;6217667;23;20364;-79
2022/03/17 08:55:34;;;;;;;0.93;0.93;;;;;;;6.20;73.47;100247.28;6216756;23;20501;-79
2022/03/17 08:58:00;;;;;;;1.65;1.60;;;;;;;6.28;73.46;100256.84;6242669;23;20008;-79
2022/03/17 09:00:26;;;;;;;0.28;0.28;;;;;;;6.27;72.69;100253.38;6217131;23;20012;-79
2022/03/17 09:02:53;;;;;;;3.67;1.92;;;;;;;6.33;72.65;100255.16;6217243;23;20493;-79
2022/03/17 09:05:19;;;;;;;1.67;1.58;;;;;;;6.35;72.25;100254.97;6216968;23;20004;-79
2022/03/17 09:07:44;;;;;;;0.17;0.17;;;;;;;6.39;71.53;100264.91;6217133;23;20004;-79
2022/03/17 09:10:10;;;;;;;0.10;0.10;;;;;;;6.42;71.98;100247.75;6217193;23;20011;-79
2022/03/17 09:12:35;;;;;;;0.13;0.13;;;;;;;6.45;72.00;100257.91;6217014;23;20004;-79
2022/03/17 09:15:01;;;;;;;0.30;0.30;;;;;;;6.47;71.37;100250.56;6217184;23;20008;-79
2022/03/17 09:17:26;;;;;;;2.15;2.05;;;;;;;6.48;71.80;100252.19;6216798;23;20004;-79
2022/03/17 09:19:52;;;;;;;1.15;1.15;;;;;;;6.52;71.44;100261.34;6216920;23;20035;-80
2022/03/17 09:22:18;;;;;;;0.32;0.32;;;;;;;6.62;72.18;100262.69;6216940;23;20012;-79
2022/03/17 09:24:46;;;;;;;0.98;0.82;;;;;;;6.69;72.47;100260.78;6216469;23;20004;-79
2022/03/17 09:27:11;;;;;;;4.17;1.27;;;;;;;6.80;72.17;100265.34;6218834;23;20022;-79
2022/03/17 09:29:39;;;;;;;0.63;0.63;;;;;;;6.87;71.67;100257.28;6119754;23;20245;-79
2022/03/17 09:32:05;;;;;;;0.83;0.83;;;;;;;6.98;71.93;100255.75;6221240;23;20006;-79
2022/03/17 09:34:33;;;;;;;1.88;0.57;;;;;;;6.93;70.07;100266.25;6221168;23;20295;-79
2022/03/17 09:37:00;;;;;;;1.05;1.05;;;;;;;6.93;70.48;100255.59;6221709;23;20001;-79
2022/03/17 09:39:45;;;;;;;0.45;0.45;;;;;;;6.97;70.95;100260.25;6221244;23;20037;-79
2022/03/17 09:42:21;;;;;;;3.17;1.55;;;;;;;6.98;70.74;100255.75;6221519;23;20002;-79
2022/03/17 09:44:52;;;;;;;0.32;0.32;;;;;;;6.93;70.67;100267.03;6221014;23;20016;-79
2022/03/17 09:47:20;;;;;;;0.43;0.43;;;;;;;6.96;69.32;100273.78;6221148;23;20013;-79
2022/03/17 09:49:47;;;;;;;4.65;2.25;;;;;;;7.02;69.78;100264.94;6221086;23;20013;-79
2022/03/17 09:52:14;;;;;;;0.08;0.08;;;;;;;6.91;68.75;100268.31;6221142;23;20502;-79
2022/03/17 09:54:50;;;;;;;0.10;0.10;;;;;;;6.91;70.00;100260.31;6221178;23;20091;-79
2022/03/17 09:57:16;;;;;;;0.55;0.55;;;;;;;6.94;69.43;100266.00;6247086;22;20028;-79
2022/03/17 09:59:48;;;;;;;0.82;0.82;;;;;;;6.95;69.53;100264.97;6220824;23;20440;-79
2022/03/17 10:02:18;;;;;;;0.95;0.95;;;;;;;7.02;69.51;100262.25;6221061;23;20347;-79
2022/03/17 10:04:45;;;;;;;0.45;0.45;;;;;;;7.05;68.62;100267.97;6220855;23;20010;-79
2022/03/17 10:07:17;;;;;;;0.32;0.32;;;;;;;7.09;68.90;100260.31;6221218;23;20013;-79
2022/03/17 10:09:45;;;;;;;0.73;0.73;;;;;;;7.13;68.60;100266.84;6220780;23;20444;-79
2022/03/17 10:12:11;;;;;;;;;;;;;;;7.03;69.52;100267.34;6221845;23;20010;-79
2022/03/17 10:14:43;;;;;;;1.65;1.55;;;;;;;6.93;67.18;100284.84;6246691;22;19955;-79
2022/03/17 10:17:31;;;;;;;0.20;0.20;;;;;;;6.93;66.88;100274.22;6119957;23;20013;-79
2022/03/17 10:20:13;;;;;;;0.22;0.22;;;;;;;6.92;67.64;100267.28;6221520;23;20014;-78
2022/03/17 10:22:43;;;;;;;0.10;0.10;;;;;;;6.91;67.01;100281.59;6221022;23;20006;-80
2022/03/17 10:25:12;;;;;;;0.32;0.32;;;;;;;6.95;66.73;100278.28;6231493;22;20039;-80
2022/03/17 10:27:38;;;;;;;;;;;;;;;6.92;65.60;100285.88;6247478;22;20007;-80
2022/03/17 10:30:06;;;;;;;0.00;0.00;;;;;;;6.93;66.02;100276.88;6247403;22;19998;-80
2022/03/17 10:32:32;;;;;;;13.20;2.17;;;;;;;7.00;67.01;100288.25;6246942;22;20014;-80
2022/03/17 10:34:58;;;;;;;0.43;0.43;;;;;;;7.01;66.09;100281.91;6247045;22;20008;-80
2022/03/17 10:37:25;;;;;;;0.80;0.80;;;;;;;7.07;65.36;100278.38;6247256;22;20011;-80
2022/03/17 10:39:54;;;;;;;0.10;0.10;;;;;;;7.07;66.30;100274.88;6246836;22;20004;-80
2022/03/17 10:42:22;;;;;;;0.68;0.63;;;;;;;7.18;66.38;100290.13;6247221;22;20079;-80
2022/03/17 10:44:56;;;;;;;0.40;0.40;;;;;;;7.04;66.07;100300.06;6273991;22;20035;-80
2022/03/17 10:47:27;;;;;;;0.00;0.00;;;;;;;7.00;66.38;100297.03;6247145;22;20230;-78
2022/03/17 10:50:12;;;;;;;0.20;0.20;;;;;;;7.12;65.87;100281.16;6246686;22;20004;-80
2022/03/17 10:52:53;;;;;;;0.00;0.00;;;;;;;7.24;66.08;100280.41;6246827;22;20012;-80
2022/03/17 10:55:23;;;;;;;0.03;0.03;;;;;;;7.31;65.43;100278.47;6246912;22;20015;-80
2022/03/17 10:57:49;;;;;;;0.00;0.00;;;;;;;7.27;63.56;100295.94;6246799;22;20020;-79
2022/03/17 11:00:28;;;;;;;0.65;0.65;;;;;;;7.30;64.00;100276.84;6246967;22;20069;-80
2022/03/17 11:02:58;;;;;;;0.28;0.28;;;;;;;7.33;64.12;100293.19;6247533;22;20004;-80
2022/03/17 11:05:27;;;;;;;2.00;1.10;;;;;;;7.32;64.98;100283.59;6247067;22;20087;-79
2022/03/17 11:07:54;;;;;;;0.05;0.05;;;;;;;7.27;65.28;100293.28;6246751;22;20015;-80
2022/03/17 11:10:22;;;;;;;0.00;0.00;;;;;;;7.27;65.89;100294.09;6247009;22;20065;-80
2022/03/17 11:12:49;;;;;;;0.20;0.20;;;;;;;7.25;65.80;100308.66;6247750;22;20015;-80
2022/03/17 11:15:23;;;;;;;0.10;0.10;;;;;;;7.15;66.11;100306.50;6248910;22;20011;-80
2022/03/17 11:17:50;;;;;;;0.10;0.10;;;;;;;7.18;67.17;100298.09;6248631;22;20016;-79
2022/03/17 11:20:34;;;;;;;0.10;0.10;;;;;;;7.04;67.63;100294.75;6248797;22;20007;-80
2022/03/17 11:23:09;;;;;;;0.10;0.10;;;;;;;7.11;68.16;100298.16;6248848;22;20008;-80
2022/03/17 11:25:35;;;;;;;0.38;0.38;;;;;;;6.94;68.74;100297.13;6247877;22;20016;-80
2022/03/17 11:28:03;;;;;;;0.10;0.10;;;;;;;6.73;67.80;100323.09;6248764;22;20429;-80
2022/03/17 11:30:40;;;;;;;0.10;0.10;;;;;;;6.69;67.76;100313.94;6248611;22;20008;-80
2022/03/17 11:33:21;;;;;;;0.00;0.00;;;;;;;6.66;68.87;100298.41;6249013;22;20012;-80
2022/03/17 11:35:54;;;;;;;0.35;0.35;;;;;;;6.49;68.94;100325.53;6248246;22;20077;-80
2022/03/17 11:38:26;;;;;;;0.20;0.20;;;;;;;6.36;70.59;100330.97;6248563;22;20006;-80
2022/03/17 11:41:10;;;;;;;0.00;0.00;;;;;;;6.33;70.97;100302.97;6248471;22;20012;-80
2022/03/17 11:43:58;;;;;;;0.82;0.45;;;;;;;6.33;71.22;100299.53;6248127;22;20007;-80
2022/03/17 11:46:37;;;;;;;0.10;0.10;;;;;;;6.10;69.57;100298.25;6248478;22;20356;-80
2022/03/17 11:49:25;;;;;;;0.03;0.03;;;;;;;6.11;70.36;100313.16;6248513;22;20015;-80
2022/03/17 11:52:08;;;;;;;0.07;0.07;;;;;;;6.11;70.87;100323.78;6248085;22;20007;-80
2022/03/17 11:54:34;;;;;;;0.00;0.00;;;;;;;6.04;70.76;100310.56;6248429;22;20015;-80
2022/03/17 11:57:04;;;;;;;0.43;0.43;;;;;;;6.02;72.18;100298.53;6248411;22;20008;-80
2022/03/17 11:59:58;;;;;;;0.10;0.10;;;;;;;5.85;71.72;100306.97;6248115;22;20429;-81
2022/03/17 12:02:30;;;;;;;0.00;0.00;;;;;;;5.76;71.28;100313.53;6273805;22;20011;-80
2022/03/17 12:04:56;;;;;;;0.17;0.17;;;;;;;5.68;71.80;100306.66;6247695;22;20003;-80
2022/03/17 12:07:21;;;;;;;0.10;0.10;;;;;;;5.70;71.88;100312.56;6248146;22;20020;-80
2022/03/17 12:09:47;;;;;;;0.43;0.43;;;;;;;5.69;72.50;100300.31;6247921;22;20150;-80
2022/03/17 12:12:22;;;;;;;0.00;0.00;;;;;;;5.67;72.01;100320.94;6248230;22;20015;-80
2022/03/17 12:15:09;;;;;;;0.35;0.35;;;;;;;5.69;71.90;100321.56;6247594;22;20530;-81
2022/03/17 12:17:34;;;;;;;0.00;0.00;;;;;;;5.61;72.90;100311.16;6273255;22;20010;-80
2022/03/17 12:20:19;;;;;;;0.10;0.10;;;;;;;5.45;72.38;100315.13;6248421;22;20004;-80
2022/03/17 12:22:44;;;;;;;0.00;0.00;;;;;;;5.42;72.43;100307.56;6273298;22;20330;-80
2022/03/17 12:25:19;;;;;;;0.00;0.00;;;;;;;5.44;72.79;100313.50;6248116;22;20007;-80
2022/03/17 12:27:53;;;;;;;0.73;0.73;;;;;;;5.53;72.79;100328.16;6273660;22;20346;-80
2022/03/17 12:30:19;;;;;;;0.08;0.08;;;;;;;5.64;71.78;100344.44;6247295;22;20008;-80
2022/03/17 12:32:48;;;;;;;0.20;0.20;;;;;;;5.59;69.86;100360.97;6247127;22;20089;-79
2022/03/17 12:35:13;;;;;;;0.75;0.75;;;;;;;5.52;69.10;100331.03;6248111;22;20004;-79
2022/03/17 12:37:41;;;;;;;0.00;0.00;;;;;;;5.50;68.58;100325.13;6247861;22;20034;-78
2022/03/17 12:40:12;;;;;;;0.90;0.90;;;;;;;5.61;69.05;100312.00;6248344;22;20514;-78
2022/03/17 12:42:40;;;;;;;0.00;0.00;;;;;;;5.58;68.51;100328.34;6247913;22;20018;-80
2022/03/17 12:45:08;;;;;;;0.00;0.00;;;;;;;5.61;68.67;100333.22;6248254;22;20038;-78
2022/03/17 12:47:39;;;;;;;0.45;0.45;;;;;;;5.64;68.77;100339.13;6247482;22;20022;-78
2022/03/17 12:50:07;;;;;;;1.23;1.23;;;;;;;5.59;67.84;100329.97;6247432;22;20008;-78
2022/03/17 12:52:34;;;;;;;0.00;0.00;;;;;;;5.60;68.91;100338.72;6247369;22;20004;-78
2022/03/17 12:55:02;;;;;;;0.00;0.00;;;;;;;5.53;68.60;100338.78;6248250;22;20007;-79
2022/03/17 12:57:30;;;;;;;0.17;0.17;;;;;;;5.56;69.31;100319.75;6247937;22;20042;-79
2022/03/17 12:59:57;;;;;;;0.00;0.00;;;;;;;5.59;68.81;100337.09;6247847;22;20012;-79
2022/03/17 13:02:23;;;;;;;0.32;0.32;;;;;;;5.60;68.82;100328.94;6247735;22;20034;-79
2022/03/17 13:04:52;;;;;;;0.00;0.00;;;;;;;5.59;67.64;100337.09;6274039;22;20480;-79
2022/03/17 13:07:19;;;;;;;1.40;1.30;;;;;;;5.68;68.54;100332.38;6247720;22;20008;-79
2022/03/17 13:09:46;;;;;;;0.55;0.55;;;;;;;5.65;67.42;100330.97;6247678;22;19999;-79
2022/03/17 13:15:11;;;;;;;0.10;0.10;;;;;;;5.67;66.11;100334.22;6274735;22;20065;-80
2022/03/17 13:17:49;;;;;;;0.57;0.57;;;;;;;5.77;65.77;100341.72;6247488;22;20441;-80
2022/03/17 13:20:21;;;;;;;1.27;1.27;;;;;;;5.76;65.94;100362.16;6247755;22;20010;-78
2022/03/17 13:23:00;;;;;;;0.10;0.10;;;;;;;5.64;66.21;100366.50;6247410;22;20433;-80
2022/03/17 13:25:28;;;;;;;0.35;0.35;;;;;;;5.58;66.34;100357.53;6221766;23;20096;-80
2022/03/17 13:27:58;;;;;;;0.65;0.65;;;;;;;5.64;65.15;100368.31;6221683;23;20009;-80
2022/03/17 13:30:25;;;;;;;0.10;0.10;;;;;;;5.64;65.19;100363.00;6222108;23;20002;-80
2022/03/17 13:33:00;;;;;;;0.30;0.30;;;;;;;5.64;65.08;100377.13;6221299;23;20017;-80
2022/03/17 13:35:26;;;;;;;1.23;1.23;;;;;;;5.60;63.00;100366.09;6221776;23;20006;-80
2022/03/17 13:38:04;;;;;;;1.10;1.10;;;;;;;5.53;63.45;100369.78;6119440;23;20458;-79
2022/03/17 13:40:43;;;;;;;0.10;0.10;;;;;;;5.55;62.91;100375.72;6221710;23;20435;-80
2022/03/17 13:43:09;;;;;;;0.00;0.00;;;;;;;5.52;62.64;100366.31;6222045;23;20033;-79
2022/03/17 13:45:37;;;;;;;0.52;0.52;;;;;;;5.52;62.81;100384.09;6221138;23;20006;-80
2022/03/17 13:48:05;;;;;;;0.10;0.10;;;;;;;5.51;63.79;100372.66;6221813;23;20343;-80
2022/03/17 13:50:32;;;;;;;0.10;0.10;;;;;;;5.55;63.74;100370.41;6221236;23;20081;-80
2022/03/17 13:53:08;;;;;;;0.13;0.13;;;;;;;5.62;63.85;100384.47;6221522;23;20013;-80
2022/03/17 13:55:36;;;;;;;0.30;0.30;;;;;;;5.57;63.12;100386.94;6119777;23;20465;-80
2022/03/17 13:58:09;;;;;;;0.10;0.10;;;;;;;5.48;62.45;100396.97;6221678;23;20006;-80
2022/03/17 14:00:34;;;;;;;1.80;1.70;;;;;;;5.54;62.68;100401.44;6221169;23;20449;-79
2022/03/17 14:03:15;;;;;;;0.20;0.20;;;;;;;5.55;61.85;100381.81;6222116;23;20009;-80
2022/03/17 14:05:59;;;;;;;0.65;0.65;;;;;;;5.50;62.34;100381.63;6119259;23;20442;-80
2022/03/17 14:08:25;;;;;;;0.10;0.10;;;;;;;5.55;62.81;100383.66;6221501;23;20006;-79
2022/03/17 14:10:51;;;;;;;0.65;0.65;;;;;;;5.50;61.77;100396.75;6221565;23;20442;-80
2022/03/17 14:13:17;;;;;;;0.85;0.70;;;;;;;5.47;62.25;100381.25;6221486;23;20038;-79
2022/03/17 14:15:43;;;;;;;0.30;0.30;;;;;;;5.51;62.35;100388.56;6221804;23;20005;-79
2022/03/17 14:18:10;;;;;;;0.10;0.10;;;;;;;5.56;62.36;100380.78;6221691;23;20016;-80
2022/03/17 14:20:35;;;;;;;0.22;0.22;;;;;;;5.54;61.41;100395.31;6221728;23;20006;-80
2022/03/17 14:25:45;;;;;;;1.48;1.38;;;;;;;5.55;61.26;100384.47;6167636;22;20030;-80
2022/03/17 14:28:10;;;;;;;0.22;0.22;;;;;;;5.55;60.79;100395.09;6247431;22;20007;-79
2022/03/17 14:30:36;;;;;;;0.00;0.00;;;;;;;5.48;59.32;100381.06;6247238;22;20007;-79
2022/03/17 14:33:02;;;;;;;0.40;0.40;;;;;;;5.35;59.36;100403.13;6247450;22;20003;-80
2022/03/17 14:35:27;;;;;;;0.00;0.00;;;;;;;5.47;59.52;100392.69;6247354;22;20015;-80
2022/03/17 14:37:53;;;;;;;0.00;0.00;;;;;;;5.45;58.66;100394.72;6247688;22;20008;-80
2022/03/17 14:40:18;;;;;;;0.00;0.00;;;;;;;5.41;59.13;100402.28;6247198;22;20010;-79
2022/03/17 14:42:44;;;;;;;0.55;0.55;;;;;;;5.36;58.97;100395.97;6246811;22;20015;-79
2022/03/17 14:45:10;;;;;;;0.13;0.13;;;;;;;5.36;59.23;100395.97;6246925;22;20114;-80
2022/03/17 14:47:35;;;;;;;1.00;1.00;;;;;;;5.34;59.72;100398.03;6247873;22;20008;-79
2022/03/17 14:50:01;;;;;;;0.28;0.28;;;;;;;5.38;59.81;100393.91;6249488;22;20057;-79
2022/03/17 14:52:26;;;;;;;30.58;1.42;;;;;;;5.38;60.25;100400.06;6248940;22;20090;-79
2022/03/17 14:54:52;;;;;;;0.00;0.00;;;;;;;5.41;59.73;100396.19;6248883;22;20014;-80
2022/03/17 14:57:20;;;;;;;0.73;0.73;;;;;;;5.37;60.58;100398.44;6250174;22;20004;-80
2022/03/17 14:59:45;;;;;;;0.00;0.00;;;;;;;5.34;60.59;100398.03;6248822;22;20008;-79
2022/03/17 15:02:12;;;;;;;0.20;0.20;;;;;;;5.36;61.31;100410.06;6249196;22;20026;-77
2022/03/17 15:04:37;;;;;;;5.20;2.65;;;;;;;5.33;61.16;100402.50;6248404;22;20008;-80
2022/03/17 15:07:05;;;;;;;0.17;0.17;;;;;;;5.32;61.22;100414.13;6249206;22;20008;-80
2022/03/17 15:09:31;;;;;;;0.08;0.08;;;;;;;5.26;60.60;100414.97;6248556;22;20326;-79
2022/03/17 15:11:57;;;;;;;3.13;1.08;;;;;;;5.19;60.33;100414.97;6248877;22;20011;-79
2022/03/17 15:14:22;;;;;;;1.08;1.00;;;;;;;5.17;59.45;100414.38;6249171;22;20008;-80
2022/03/17 15:16:48;;;;;;;0.20;0.20;;;;;;;5.20;60.30;100413.97;6248941;22;20007;-79
2022/03/17 15:19:13;;;;;;;0.28;0.28;;;;;;;5.18;59.88;100421.31;6249137;22;20015;-79
2022/03/17 15:21:39;;;;;;;0.08;0.08;;;;;;;5.18;60.14;100421.31;6248350;22;20008;-80
2022/03/17 15:24:05;;;;;;;1.35;0.98;;;;;;;4.99;61.09;100430.91;6254009;22;20034;-80
2022/03/17 15:26:30;;;;;;;0.82;0.82;;;;;;;4.97;61.60;100438.25;6228043;22;20045;-79
2022/03/17 15:31:39;;;;;;;0.05;0.05;;;;;;;4.96;61.08;100433.97;6120061;23;20013;-79
2022/03/17 15:34:05;;;;;;;1.38;1.27;;;;;;;5.01;62.47;100436.00;6223086;23;20452;-79
2022/03/17 15:36:30;;;;;;;0.80;0.80;;;;;;;4.94;62.12;100443.97;6222910;23;20013;-80
2022/03/17 15:38:56;;;;;;;1.02;1.02;;;;;;;4.92;62.16;100438.88;6222970;23;20465;-79
2022/03/17 15:41:22;;;;;;;0.00;0.00;;;;;;;4.94;61.99;100442.13;6220518;23;20014;-80
2022/03/17 15:43:48;;;;;;;0.52;0.52;;;;;;;4.94;61.42;100450.09;6223011;23;20071;-80
2022/03/17 15:46:14;;;;;;;0.70;0.70;;;;;;;4.94;61.49;100452.75;6222805;23;20034;-80
2022/03/17 15:48:39;;;;;;;0.05;0.05;;;;;;;4.94;61.63;100460.69;6222857;23;20587;-79
2022/03/17 15:51:06;;;;;;;0.00;0.00;;;;;;;4.86;61.48;100466.19;6225016;23;20037;-80
2022/03/17 15:53:31;;;;;;;0.63;0.52;;;;;;;4.85;60.87;100463.75;6222613;23;20079;-79
2022/03/17 15:56:11;;;;;;;0.43;0.43;;;;;;;4.91;61.44;100457.63;6226636;23;20010;-80
2022/03/17 15:58:37;;;;;;;0.95;0.60;;;;;;;4.83;60.97;100463.13;6224244;23;20085;-80
2022/03/17 16:01:03;;;;;;;2.67;1.13;;;;;;;4.83;61.13;100463.94;6222370;23;20105;-78
2022/03/17 16:16:24;;;;;;;10.70;2.13;;;;;;;4.96;59.37;100482.50;6180418;22;20017;-78
2022/03/17 16:18:51;;;;;;;0.28;0.28;;;;;;;4.93;59.48;100484.75;6252689;22;20366;-79
2022/03/17 16:21:16;;;;;;;0.50;0.50;;;;;;;4.89;59.19;100486.97;6253031;22;20021;-79
2022/03/17 16:23:42;;;;;;;0.10;0.10;;;;;;;4.91;59.03;100489.44;6252309;22;20010;-80
2022/03/17 16:26:08;;;;;;;0.00;0.00;;;;;;;4.85;59.45;100493.72;6252829;22;20006;-79
2022/03/17 16:28:34;;;;;;;1.17;1.17;;;;;;;4.80;59.65;100501.47;6252734;22;20009;-79
2022/03/17 16:31:19;;;;;;;0.32;0.32;;;;;;;4.88;59.67;100495.97;6252817;22;20438;-79
2022/03/17 16:33:50;;;;;;;0.32;0.32;;;;;;;4.90;60.07;100493.91;6253014;22;20012;-79
2022/03/17 16:36:16;;;;;;;0.03;0.03;;;;;;;4.86;59.84;100500.66;6253473;22;20447;-79
2022/03/17 16:38:42;;;;;;;0.00;0.00;;;;;;;4.89;60.04;100497.59;6252271;22;20002;-80
2022/03/17 16:41:09;;;;;;;2.13;2.03;;;;;;;4.85;60.49;100504.31;6253400;22;20075;-79
2022/03/17 16:43:35;;;;;;;0.10;0.10;;;;;;;4.89;60.53;100508.19;6252092;22;20445;-79
2022/03/17 16:46:01;;;;;;;0.05;0.05;;;;;;;4.84;60.10;100512.47;6252758;22;20001;-79
2022/03/17 16:48:26;;;;;;;2.33;1.35;;;;;;;4.79;60.80;100511.22;6149565;23;20009;-79
2022/03/17 16:50:56;;;;;;;0.32;0.32;;;;;;;4.78;60.38;100514.09;6252681;22;20020;-80
2022/03/17 16:53:22;;;;;;;0.52;0.52;;;;;;;4.91;60.62;100519.41;6252662;22;20009;-79
2022/03/17 16:56:22;;;;;;;0.85;0.85;;;;;;;4.92;60.18;100525.53;6259709;22;20036;-81
2022/03/17 16:58:56;;;;;;;0.65;0.47;;;;;;;4.86;59.67;100528.97;6154214;23;20386;-79